createdAt,value
2022-12-04T00:03:31.920Z,41
2022-12-04T00:08:44.334Z,44.2
2022-12-04T00:30:01.062Z,44.5
2022-12-04T00:35:17.609Z,39.5
2022-12-04T00:40:30.905Z,53.3
2022-12-04T00:45:47.613Z,44
2022-12-04T00:51:05.751Z,44.2
2022-12-04T00:56:11.781Z,48.5
2022-12-04T01:01:22.530Z,46.7
2022-12-04T01:22:38.310Z,45.6
2022-12-04T01:27:49.866Z,50.3
2022-12-04T01:38:26.985Z,44.3
2022-12-04T01:49:00.524Z,46.1
2022-12-04T01:59:38.445Z,53.8
2022-12-04T02:04:50.321Z,52.4
2022-12-04T02:10:01.618Z,49.8
2022-12-04T02:15:13.865Z,46.9
2022-12-04T02:31:08.202Z,45.1
2022-12-04T02:41:41.553Z,40.7
2022-12-04T02:46:54.099Z,38
2022-12-04T02:52:09.990Z,33.6
2022-12-04T02:57:23.396Z,34.8
2022-12-04T03:02:39.462Z,28.4
2022-12-04T03:07:49.159Z,32.9
2022-12-04T03:13:05.445Z,27.7
2022-12-04T03:18:21.337Z,31.2
2022-12-04T03:23:33.725Z,32.4
2022-12-04T03:28:46.172Z,35
2022-12-04T03:39:22.637Z,29.6
2022-12-04T03:44:38.919Z,37
2022-12-04T03:49:51.510Z,32.7
2022-12-04T03:55:05.519Z,37.4
2022-12-04T04:11:00.423Z,37.4
2022-12-04T04:16:10.076Z,48.7
2022-12-04T04:21:26.162Z,41.1
2022-12-04T04:37:20.867Z,54.1
2022-12-04T04:58:37.244Z,38.9
2022-12-04T05:19:54.915Z,46.1
2022-12-04T05:35:50.291Z,36.2
2022-12-04T05:41:02.916Z,40.1
2022-12-04T05:46:18.159Z,35.9
2022-12-04T05:51:34.586Z,50.6
2022-12-04T05:56:45.858Z,39.7
2022-12-04T06:07:18.022Z,41.8
2022-12-04T06:12:31.312Z,41.4
2022-12-04T06:17:47.269Z,34.4
2022-12-04T06:22:59.042Z,33.2
2022-12-04T06:28:15.106Z,28.2
2022-12-04T06:33:30.952Z,32.5
2022-12-04T06:38:42.971Z,31.7
2022-12-04T06:43:53.329Z,27.4
2022-12-04T06:49:09.716Z,23.1
2022-12-04T06:54:23.844Z,21.6
2022-12-04T06:59:39.598Z,17.9
2022-12-04T07:04:50.939Z,16.2
2022-12-04T07:10:03.009Z,16.5
2022-12-04T07:15:18.449Z,22.5
2022-12-04T07:20:30.727Z,22.5
2022-12-04T07:25:39.381Z,27
2022-12-04T07:30:52.944Z,23.4
2022-12-04T07:46:51.802Z,33.8
2022-12-04T07:52:04.210Z,27.9
2022-12-04T07:57:16.097Z,30.9
2022-12-04T08:02:27.385Z,34.4
2022-12-04T08:07:39.411Z,24.9
2022-12-04T08:12:50.740Z,28
2022-12-04T08:18:01.979Z,30.7
2022-12-04T08:23:14.586Z,25.4
2022-12-04T08:28:29.558Z,45.8
2022-12-04T08:33:41.445Z,32.3
2022-12-04T08:38:52.809Z,65.7
2022-12-04T08:44:09.099Z,34.2
2022-12-04T09:00:04.228Z,34.9
2022-12-04T09:05:17.355Z,26.6
2022-12-04T09:10:25.840Z,33.4
2022-12-04T09:20:58.340Z,77
2022-12-04T09:26:14.050Z,33.1
2022-12-04T09:31:26.612Z,32.7
2022-12-04T09:42:03.975Z,25.2
2022-12-04T09:47:16.208Z,26.4
2022-12-04T09:52:28.444Z,21.2
2022-12-04T09:57:42.953Z,29.1
2022-12-04T10:02:56.738Z,55.4
2022-12-04T10:08:08.964Z,25.9
2022-12-04T10:13:19.377Z,32.9
2022-12-04T10:18:31.140Z,28.5
2022-12-04T10:23:41.664Z,33.9
2022-12-04T10:28:55.727Z,33.6
2022-12-04T10:34:03.349Z,60.1
2022-12-04T10:39:14.805Z,26.4
2022-12-04T10:44:26.936Z,46.5
2022-12-04T10:49:37.908Z,18.3
2022-12-04T10:54:49.253Z,17.1
2022-12-04T11:00:01.534Z,24.2
2022-12-04T11:05:12.453Z,21.6
2022-12-04T11:10:23.535Z,20.4
2022-12-04T11:20:56.903Z,25.5
2022-12-04T11:26:09.940Z,23.9
2022-12-04T11:31:19.740Z,19.8
2022-12-04T11:36:31.498Z,16.9
2022-12-04T11:41:42.903Z,31.5
2022-12-04T11:46:55.041Z,18.2
2022-12-04T11:52:07.231Z,16.7
2022-12-04T11:57:20.785Z,22.2
2022-12-04T12:02:34.920Z,25.5
2022-12-04T12:07:45.271Z,25
2022-12-04T12:13:02.209Z,14.9
2022-12-04T12:23:39.652Z,18.2
2022-12-04T12:28:54.000Z,21.1
2022-12-04T12:34:07.001Z,20.9
2022-12-04T12:44:39.586Z,17.3
2022-12-04T12:49:51.572Z,16.7
2022-12-04T13:00:26.406Z,17.2
2022-12-04T13:05:36.248Z,17.1
2022-12-04T13:10:48.236Z,18.6
2022-12-04T13:15:59.567Z,19.8
2022-12-04T13:31:54.721Z,22.4
2022-12-04T13:37:06.574Z,25.6
2022-12-04T13:42:22.433Z,21.3
2022-12-04T13:52:55.519Z,26.4
2022-12-04T13:58:12.003Z,27
2022-12-04T14:03:23.093Z,30.6
2022-12-04T14:08:34.638Z,31.3
2022-12-04T14:13:50.682Z,24.7
2022-12-04T14:19:02.529Z,16.5
2022-12-04T14:24:14.919Z,19.3
2022-12-04T14:29:27.659Z,16.6
2022-12-04T14:40:02.777Z,21.7
2022-12-04T14:50:43.114Z,18
2022-12-04T14:56:09.026Z,23
2022-12-04T15:01:28.914Z,21.8
2022-12-04T15:06:31.541Z,25.4
2022-12-04T15:11:48.703Z,20.9
2022-12-04T15:22:25.744Z,24
2022-12-04T15:27:38.822Z,22.6
2022-12-04T15:32:49.109Z,18.7
2022-12-04T15:38:03.398Z,24.7
2022-12-04T15:43:17.557Z,28.9
2022-12-04T15:48:36.326Z,68.1
2022-12-04T15:53:48.291Z,36
2022-12-04T15:59:03.540Z,76.9
2022-12-04T16:04:18.923Z,32.8
2022-12-04T16:09:32.129Z,27.9
2022-12-04T16:20:21.443Z,36.1
2022-12-04T16:25:29.910Z,46.1
2022-12-04T16:30:38.860Z,92.4
2022-12-04T16:35:54.609Z,52.4
2022-12-04T16:41:06.386Z,57.6
2022-12-04T16:51:40.088Z,52.6
2022-12-04T16:56:52.930Z,53.9
2022-12-04T17:18:15.153Z,58.7
2022-12-04T17:28:45.287Z,51
2022-12-04T17:39:20.175Z,50.9
2022-12-04T17:50:00.935Z,100
2022-12-04T17:55:17.870Z,59.1
2022-12-04T18:00:33.247Z,57.2
2022-12-04T18:05:39.632Z,56.5
2022-12-04T18:16:15.911Z,50.2
2022-12-04T18:21:31.328Z,100
2022-12-04T18:26:45.058Z,57.3
2022-12-04T18:37:19.841Z,65.6
2022-12-04T18:42:36.462Z,36.5
2022-12-04T18:47:47.673Z,46
2022-12-04T18:58:26.312Z,63.4
2022-12-04T19:03:36.640Z,61.7
2022-12-04T19:08:49.306Z,54.9
2022-12-04T19:14:23.278Z,37.1
2022-12-04T19:19:31.940Z,40.5
2022-12-04T19:24:42.507Z,36.4
2022-12-04T19:30:11.920Z,29.9
2022-12-04T19:40:57.124Z,39.5
2022-12-04T19:46:37.145Z,29.5
2022-12-04T20:02:45.941Z,29.3
2022-12-04T20:13:31.560Z,50.1
2022-12-04T20:18:57.348Z,39.2
2022-12-04T20:24:10.187Z,44.2
2022-12-04T20:29:22.661Z,47.2
2022-12-04T20:34:45.933Z,56.6
2022-12-04T20:40:08.356Z,37.6
2022-12-04T20:50:46.640Z,29.9
2022-12-04T21:07:09.568Z,69.2
2022-12-04T21:12:51.883Z,23.8
2022-12-04T21:23:18.676Z,28.6
2022-12-04T21:44:34.104Z,26.3
2022-12-04T21:55:11.372Z,32.1
2022-12-04T22:00:24.162Z,33.3
2022-12-04T22:05:42.026Z,34.5
2022-12-04T22:16:11.720Z,30
2022-12-04T22:21:22.168Z,38.9
2022-12-04T22:31:56.015Z,40.4
2022-12-04T22:37:07.374Z,45.8
2022-12-04T22:42:19.243Z,50.4
2022-12-04T22:47:34.651Z,64.2
2022-12-04T22:52:44.939Z,60.1
2022-12-04T22:58:00.410Z,75.8
2022-12-04T23:03:13.552Z,84.2
2022-12-04T23:08:30.437Z,68.4
2022-12-04T23:13:46.565Z,53.6
2022-12-04T23:18:55.072Z,85.6
2022-12-04T23:24:11.347Z,60.2
2022-12-04T23:29:53.635Z,53.7
2022-12-04T23:34:37.433Z,50.6
2022-12-04T23:39:48.085Z,50.5
2022-12-04T23:50:19.650Z,56.8
